Brantwood, Wisconsin
Current Conditions -  °F | °C
As of 6:35 PM on Sunday 21 Dec 2014 (Local Time) from KPBH Reporting Station
Unknown Precip Unknown Precip  
Wind Chill: 24°   Ceiling: 700
Heat Index: 32°   Visibility: 3mi
Dew Point: 32°   Wind: 10mph
Humidity: 99%   Direction: 160°SSE
Pressure: 29.8"   Gusts: NA
Location:  45.56°N, 90.12°W
Report Text: KPBH 220035Z AUTO 16009KT 3SM UP OVC007 00/00 A2980 RMK AO2 P0001 T00010000
Loading
Personal Weather Stations






























Interactive Weather Map New forecast layout! Learn more

10-Day Weather Forecast

Advertisements
Track Severe Weather on mobile